Marit — LAQV7 — position and weather

sailwx.info

Track history (hours):
 
Tides and Currents Weather Stations Pressure Air Temp Water Temp Dewpoint Dewpoint Depression Visibility Wind Speed Wind Dir Waves Ship Positions

Marit

Last reported at 2018-Feb-20 19:00 UTC. Time now 2018-Feb-23 08:52 UTC.
Position N 37°35' E 023°45'.

Length 156 m; draft 6 m.

Type: Tanker. MMSI: 258276000.

Date/timePositionNaut miles runAvg speedWind from/ knotsBaromVisibWave heightAir tempDewpointWater temp
2018-Feb-20 19:00N 37°35' E 023°45'714.2
2018-Feb-20 18:30N 37°42' E 023°41'714.3
2018-Feb-20 18:01N 37°48' E 023°37'612.5
2018-Feb-20 17:30N 37°54' E 023°37'4 8.0
2018-Feb-20 17:00N 37°57' E 023°33'5 9.0
2018-Feb-20 16:30N 38°02' E 023°36'0 0.2
2018-Feb-20 15:57N 38°02' E 023°36'0 0.0
2018-Feb-19 08:36N 38°02' E 023°36'0 0.1
2018-Feb-19 08:30N 38°02' E 023°36'0 0.7
2018-Feb-19 08:00N 38°01' E 023°35'4 7.9
2018-Feb-19 07:30N 37°58' E 023°33'4 8.2
2018-Feb-19 07:00N 37°54' E 023°36'1 1.5
2018-Feb-19 06:31N 37°54' E 023°35'1 1.4
2018-Feb-19 06:00N 37°54' E 023°34'1 2.1
2018-Feb-19 05:30N 37°54' E 023°33'0 0.1
2018-Feb-19 04:59N 37°54' E 023°33'0 0.0
2018-Feb-19 04:29N 37°54' E 023°33'0 0.0
2018-Feb-19 03:59N 37°54' E 023°33'0 0.1
2018-Feb-19 03:29N 37°54' E 023°33'0 0.0
2018-Feb-19 02:59N 37°54' E 023°33'0 0.0
2018-Feb-19 02:29N 37°54' E 023°33'0 0.0
2018-Feb-19 01:59N 37°54' E 023°33'0 0.0
2018-Feb-19 01:29N 37°54' E 023°33'0 0.1
2018-Feb-19 00:59N 37°54' E 023°33'0 0.1
2018-Feb-19 00:29N 37°54' E 023°33'0 0.0
2018-Feb-18 23:59N 37°54' E 023°33'0 0.0
2018-Feb-18 23:29N 37°54' E 023°33'0 0.0
2018-Feb-18 22:59N 37°54' E 023°33'0 0.0
2018-Feb-18 22:29N 37°54' E 023°33'0 0.0
2018-Feb-18 21:59N 37°54' E 023°33'0 0.3
2018-Feb-18 21:29N 37°54' E 023°33'0 0.1
2018-Feb-18 20:59N 37°54' E 023°33'0 0.0
2018-Feb-18 20:29N 37°54' E 023°33'0 0.0
2018-Feb-18 19:59N 37°54' E 023°33'0 0.1
2018-Feb-18 19:29N 37°54' E 023°33'0 0.0
2018-Feb-18 18:59N 37°54' E 023°33'0 0.0
2018-Feb-18 18:29N 37°54' E 023°33'0 0.1
2018-Feb-18 18:00N 37°54' E 023°33'3 5.4
2018-Feb-18 17:30N 37°53' E 023°36'611.4
2018-Feb-18 17:00N 37°49' E 023°41'612.7
2018-Feb-18 16:30N 37°43' E 023°44'713.5
2018-Feb-18 16:01N 37°37' E 023°46'813.7
2018-Feb-18 15:25N 37°29' E 023°45'1013.7
2018-Feb-18 14:40N 37°19' E 023°40'213.7
2018-Feb-18 14:30N 37°17' E 023°39'306 9.0
2018-Feb-17 04:41N 40°29' E 018°33'34313.8
2018-Feb-16 03:55N 44°46' E 013°25'614.1
2018-Feb-16 03:30N 44°51' E 013°20'1014.2
2018-Feb-16 02:49N 44°59' E 013°12'414.2
2018-Feb-16 02:30N 45°02' E 013°09'1014.0
2018-Feb-16 01:46N 45°11' E 013°03'414.4
2018-Feb-16 01:29N 45°15' E 013°01'814.2
2018-Feb-16 00:57N 45°23' E 012°59'612.9
2018-Feb-16 00:31N 45°28' E 013°01'714.2
2018-Feb-16 00:01N 45°31' E 013°10'714.2
2018-Feb-15 23:31N 45°34' E 013°20'714.4
2018-Feb-15 23:01N 45°37' E 013°29'713.9
2018-Feb-15 22:30N 45°37' E 013°39'5 9.8
2018-Feb-15 22:00N 45°37' E 013°46'2 0.2
2018-Feb-15 08:53N 45°37' E 013°49'0 0.1
2018-Feb-15 08:30N 45°37' E 013°49'1 1.6
2018-Feb-15 08:01N 45°36' E 013°48'3 5.5
2018-Feb-15 07:30N 45°37' E 013°44'3 5.1
2018-Feb-15 07:00N 45°37' E 013°40'2 4.2
2018-Feb-15 06:30N 45°37' E 013°37'2 4.4
2018-Feb-15 06:00N 45°36' E 013°34'2 4.5
2018-Feb-15 05:30N 45°35' E 013°31'2 4.3
2018-Feb-15 05:00N 45°34' E 013°29'3 5.9
2018-Feb-15 04:29N 45°32' E 013°25'4 7.2
2018-Feb-15 04:00N 45°30' E 013°21'612.2
2018-Feb-15 03:30N 45°26' E 013°15'611.4
2018-Feb-15 03:00N 45°21' E 013°12'712.9
2018-Feb-15 02:30N 45°14' E 013°14'612.9
2018-Feb-15 02:00N 45°08' E 013°16'612.7
2018-Feb-15 01:31N 45°02' E 013°18'712.7
2018-Feb-15 01:00N 44°56' E 013°23'612.6
2018-Feb-15 00:31N 44°51' E 013°28'612.5
2018-Feb-15 00:00N 44°46' E 013°32'612.3
2018-Feb-14 23:30N 44°41' E 013°37'  
2018-Feb-10 23:01N 40°25' E 029°01'112.9
2018-Feb-10 22:58N 40°25' E 029°02'2 3.9
2018-Feb-10 22:30N 40°25' E 029°04'0 0.2
2018-Feb-10 22:00N 40°25' E 029°04'  
Track history (hours):
 
Tides and Currents Weather Stations Pressure Air Temp Water Temp Dewpoint Dewpoint Depression Visibility Wind Speed Wind Dir Waves Ship Positions

Marit

Last reported at 2018-Feb-20 19:00 UTC. Time now 2018-Feb-23 08:52 UTC.
Position N 37°35' E 023°45'.

Length 156 m; draft 6 m.

Type: Tanker. MMSI: 258276000.

Date/timePositionNaut miles runAvg speedWind from/ knotsBaromVisibWave heightAir tempDewpointWater temp
2018-Feb-20 19:00N 37°35' E 023°45'714.2
2018-Feb-20 18:30N 37°42' E 023°41'714.3
2018-Feb-20 18:01N 37°48' E 023°37'612.5
2018-Feb-20 17:30N 37°54' E 023°37'4 8.0
2018-Feb-20 17:00N 37°57' E 023°33'5 9.0
2018-Feb-20 16:30N 38°02' E 023°36'0 0.2
2018-Feb-20 15:57N 38°02' E 023°36'0 0.0
2018-Feb-19 08:36N 38°02' E 023°36'0 0.1
2018-Feb-19 08:30N 38°02' E 023°36'0 0.7
2018-Feb-19 08:00N 38°01' E 023°35'4 7.9
2018-Feb-19 07:30N 37°58' E 023°33'4 8.2
2018-Feb-19 07:00N 37°54' E 023°36'1 1.5
2018-Feb-19 06:31N 37°54' E 023°35'1 1.4
2018-Feb-19 06:00N 37°54' E 023°34'1 2.1
2018-Feb-19 05:30N 37°54' E 023°33'0 0.1
2018-Feb-19 04:59N 37°54' E 023°33'0 0.0
2018-Feb-19 04:29N 37°54' E 023°33'0 0.0
2018-Feb-19 03:59N 37°54' E 023°33'0 0.1
2018-Feb-19 03:29N 37°54' E 023°33'0 0.0
2018-Feb-19 02:59N 37°54' E 023°33'0 0.0
2018-Feb-19 02:29N 37°54' E 023°33'0 0.0
2018-Feb-19 01:59N 37°54' E 023°33'0 0.0
2018-Feb-19 01:29N 37°54' E 023°33'0 0.1
2018-Feb-19 00:59N 37°54' E 023°33'0 0.1
2018-Feb-19 00:29N 37°54' E 023°33'0 0.0
2018-Feb-18 23:59N 37°54' E 023°33'0 0.0
2018-Feb-18 23:29N 37°54' E 023°33'0 0.0
2018-Feb-18 22:59N 37°54' E 023°33'0 0.0
2018-Feb-18 22:29N 37°54' E 023°33'0 0.0
2018-Feb-18 21:59N 37°54' E 023°33'0 0.3
2018-Feb-18 21:29N 37°54' E 023°33'0 0.1
2018-Feb-18 20:59N 37°54' E 023°33'0 0.0
2018-Feb-18 20:29N 37°54' E 023°33'0 0.0
2018-Feb-18 19:59N 37°54' E 023°33'0 0.1
2018-Feb-18 19:29N 37°54' E 023°33'0 0.0
2018-Feb-18 18:59N 37°54' E 023°33'0 0.0
2018-Feb-18 18:29N 37°54' E 023°33'0 0.1
2018-Feb-18 18:00N 37°54' E 023°33'3 5.4
2018-Feb-18 17:30N 37°53' E 023°36'611.4
2018-Feb-18 17:00N 37°49' E 023°41'612.7
2018-Feb-18 16:30N 37°43' E 023°44'713.5
2018-Feb-18 16:01N 37°37' E 023°46'813.7
2018-Feb-18 15:25N 37°29' E 023°45'1013.7
2018-Feb-18 14:40N 37°19' E 023°40'213.7
2018-Feb-18 14:30N 37°17' E 023°39'306 9.0
2018-Feb-17 04:41N 40°29' E 018°33'34313.8
2018-Feb-16 03:55N 44°46' E 013°25'614.1
2018-Feb-16 03:30N 44°51' E 013°20'1014.2
2018-Feb-16 02:49N 44°59' E 013°12'414.2
2018-Feb-16 02:30N 45°02' E 013°09'1014.0
2018-Feb-16 01:46N 45°11' E 013°03'414.4
2018-Feb-16 01:29N 45°15' E 013°01'814.2
2018-Feb-16 00:57N 45°23' E 012°59'612.9
2018-Feb-16 00:31N 45°28' E 013°01'714.2
2018-Feb-16 00:01N 45°31' E 013°10'714.2
2018-Feb-15 23:31N 45°34' E 013°20'714.4
2018-Feb-15 23:01N 45°37' E 013°29'713.9
2018-Feb-15 22:30N 45°37' E 013°39'5 9.8
2018-Feb-15 22:00N 45°37' E 013°46'2 0.2
2018-Feb-15 08:53N 45°37' E 013°49'0 0.1
2018-Feb-15 08:30N 45°37' E 013°49'1 1.6
2018-Feb-15 08:01N 45°36' E 013°48'3 5.5
2018-Feb-15 07:30N 45°37' E 013°44'3 5.1
2018-Feb-15 07:00N 45°37' E 013°40'2 4.2
2018-Feb-15 06:30N 45°37' E 013°37'2 4.4
2018-Feb-15 06:00N 45°36' E 013°34'2 4.5
2018-Feb-15 05:30N 45°35' E 013°31'2 4.3
2018-Feb-15 05:00N 45°34' E 013°29'3 5.9
2018-Feb-15 04:29N 45°32' E 013°25'4 7.2
2018-Feb-15 04:00N 45°30' E 013°21'612.2
2018-Feb-15 03:30N 45°26' E 013°15'611.4
2018-Feb-15 03:00N 45°21' E 013°12'712.9
2018-Feb-15 02:30N 45°14' E 013°14'612.9
2018-Feb-15 02:00N 45°08' E 013°16'612.7
2018-Feb-15 01:31N 45°02' E 013°18'712.7
2018-Feb-15 01:00N 44°56' E 013°23'612.6
2018-Feb-15 00:31N 44°51' E 013°28'612.5
2018-Feb-15 00:00N 44°46' E 013°32'612.3
2018-Feb-14 23:30N 44°41' E 013°37'  
2018-Feb-10 23:01N 40°25' E 029°01'112.9
2018-Feb-10 22:58N 40°25' E 029°02'2 3.9
2018-Feb-10 22:30N 40°25' E 029°04'0 0.2
2018-Feb-10 22:00N 40°25' E 029°04'  

Dump ship's entire track history